Time;durP1;ratioP1;P1;durP2;ratioP2;P2;SDS_P1;SDS_P2;PMS_P1;PMS_P2;Temp;Humidity;BMP_temperature;BMP_pressure;BME280_temperature;BME280_humidity;BME280_pressure;Samples;Min_cycle;Max_cycle;Signal;HPM_P1;HPM_P2
2023/04/25 00:01:48;;;;;;;46.78;21.13;;;11.70;99.90;;;;;;4973704;28;20629;-78
2023/04/25 00:04:15;;;;;;;39.10;21.73;;;11.70;99.90;;;;;;4972411;28;20046;-78
2023/04/25 00:06:43;;;;;;;49.70;22.25;;;11.70;99.90;;;;;;4972810;28;20053;-78
2023/04/25 00:09:12;;;;;;;54.17;23.08;;;11.70;99.90;;;;;;4967547;28;20453;-78
2023/04/25 00:11:39;;;;;;;46.65;21.13;;;11.70;99.90;;;;;;4966674;28;20100;-79
2023/04/25 00:14:07;;;;;;;44.63;21.83;;;11.60;99.90;;;;;;4967932;28;20086;-79
2023/04/25 00:16:35;;;;;;;39.33;24.55;;;11.60;99.90;;;;;;4974110;28;20046;-79
2023/04/25 00:19:03;;;;;;;46.78;21.10;;;11.70;99.90;;;;;;4971777;28;20070;-79
2023/04/25 00:21:32;;;;;;;58.15;22.67;;;11.70;99.90;;;;;;4973605;28;20142;-78
2023/04/25 00:24:00;;;;;;;37.08;25.10;;;11.70;99.90;;;;;;4967106;28;20058;-77
2023/04/25 00:26:30;;;;;;;40.95;24.67;;;11.70;99.90;;;;;;4972738;28;20101;-78
2023/04/25 00:28:58;;;;;;;40.88;25.52;;;11.80;99.90;;;;;;4986277;28;20061;-78
2023/04/25 00:31:26;;;;;;;45.30;26.20;;;11.90;99.90;;;;;;4942934;28;20058;-79
2023/04/25 00:33:53;;;;;;;40.60;27.15;;;12.00;99.90;;;;;;4965269;28;20504;-79
2023/04/25 00:36:21;;;;;;;32.70;25.73;;;12.00;99.90;;;;;;4942623;28;20054;-78
2023/04/25 00:38:49;;;;;;;37.13;24.80;;;12.00;99.90;;;;;;4971132;28;20141;-78
2023/04/25 00:41:16;;;;;;;42.72;26.48;;;12.00;99.90;;;;;;4973717;28;20050;-78
2023/04/25 00:43:47;;;;;;;33.22;22.95;;;12.00;99.90;;;;;;4973454;28;20047;-78
2023/04/25 00:46:14;;;;;;;35.35;24.42;;;12.10;99.90;;;;;;4963970;28;20431;-79
2023/04/25 00:48:42;;;;;;;29.92;21.88;;;12.10;99.90;;;;;;4955926;28;20046;-79
2023/04/25 00:51:14;;;;;;;37.30;21.85;;;12.10;99.90;;;;;;4971863;28;20247;-78
2023/04/25 00:53:41;;;;;;;35.80;21.77;;;12.10;99.90;;;;;;4970354;28;20062;-79
2023/04/25 00:56:09;;;;;;;37.83;22.73;;;12.10;99.90;;;;;;4969151;28;20468;-78
2023/04/25 00:58:38;;;;;;;34.20;21.70;;;12.10;99.90;;;;;;4973584;28;20042;-79
2023/04/25 01:01:08;;;;;;;33.03;22.73;;;12.10;99.90;;;;;;4970155;28;20030;-79
2023/04/25 01:03:40;;;;;;;36.30;23.45;;;12.10;99.90;;;;;;4967432;28;20051;-79
2023/04/25 01:06:10;;;;;;;40.08;22.17;;;12.00;99.90;;;;;;4969377;28;20062;-79
2023/04/25 01:08:39;;;;;;;39.30;23.05;;;12.00;99.90;;;;;;4976611;28;20314;-78
2023/04/25 01:11:07;;;;;;;38.92;23.10;;;12.00;99.90;;;;;;4972788;28;20054;-78
2023/04/25 01:13:35;;;;;;;43.72;21.85;;;12.00;99.90;;;;;;4962302;28;20540;-79
2023/04/25 01:16:04;;;;;;;29.17;19.65;;;12.00;99.90;;;;;;4973287;28;20545;-78
2023/04/25 01:18:37;;;;;;;35.03;20.63;;;12.00;99.90;;;;;;4969142;28;20070;-82
2023/04/25 01:21:11;;;;;;;29.27;19.52;;;11.90;99.90;;;;;;4970250;28;20625;-83
2023/04/25 01:23:41;;;;;;;36.90;18.20;;;11.90;99.90;;;;;;4972354;28;20055;-85
2023/04/25 01:26:11;;;;;;;30.00;18.27;;;11.90;99.90;;;;;;4988094;28;20046;-83
2023/04/25 01:28:41;;;;;;;28.15;19.30;;;11.90;99.90;;;;;;4966404;28;20044;-85
2023/04/25 01:31:10;;;;;;;29.77;18.25;;;11.80;99.90;;;;;;4966856;28;20059;-84
2023/04/25 01:33:38;;;;;;;28.02;17.92;;;11.80;99.90;;;;;;4970525;28;20487;-85
2023/04/25 01:36:10;;;;;;;26.83;18.45;;;11.80;99.90;;;;;;4956234;28;20086;-84
2023/04/25 01:38:38;;;;;;;27.65;16.88;;;11.70;99.90;;;;;;4972246;28;20582;-83
2023/04/25 01:41:07;;;;;;;26.23;16.10;;;11.70;99.90;;;;;;4960384;28;20055;-85
2023/04/25 01:43:35;;;;;;;24.35;15.88;;;11.70;99.90;;;;;;4971185;28;20065;-83
2023/04/25 01:46:03;;;;;;;27.60;17.27;;;11.70;99.90;;;;;;4954741;28;20141;-80
2023/04/25 01:48:30;;;;;;;27.50;17.27;;;11.70;99.90;;;;;;4966827;28;20063;-78
2023/04/25 01:50:58;;;;;;;27.80;16.27;;;11.70;99.90;;;;;;4957420;28;20422;-83
2023/04/25 01:53:27;;;;;;;33.60;17.77;;;11.60;99.90;;;;;;4955602;28;20179;-83
2023/04/25 01:55:55;;;;;;;25.52;15.82;;;11.70;99.90;;;;;;4966357;28;20057;-83
2023/04/25 01:58:25;;;;;;;28.98;16.58;;;11.70;99.90;;;;;;4974606;28;20042;-83
2023/04/25 02:01:10;;;;;;;24.80;15.18;;;11.70;99.90;;;;;;4942799;28;20107;-83
2023/04/25 02:03:45;;;;;;;24.10;14.85;;;11.70;99.90;;;;;;4982798;28;20468;-83
2023/04/25 02:06:21;;;;;;;25.30;14.40;;;11.70;99.90;;;;;;4964746;28;20047;-83
2023/04/25 02:08:51;;;;;;;22.30;15.95;;;11.70;99.90;;;;;;4975770;28;20423;-83
2023/04/25 02:11:19;;;;;;;23.08;14.38;;;11.70;99.90;;;;;;4951995;29;20054;-83
2023/04/25 02:13:55;;;;;;;27.30;14.95;;;11.60;99.90;;;;;;4963503;28;20078;-82
2023/04/25 02:16:39;;;;;;;22.70;12.93;;;11.60;99.90;;;;;;4967337;28;20093;-81
2023/04/25 02:19:08;;;;;;;16.63;12.02;;;11.60;99.90;;;;;;4972329;28;20074;-82
2023/04/25 02:21:36;;;;;;;19.73;12.77;;;11.60;99.90;;;;;;4969120;28;20039;-82
2023/04/25 02:24:06;;;;;;;17.27;11.73;;;11.50;99.90;;;;;;4966714;28;20055;-82
2023/04/25 02:26:35;;;;;;;19.15;12.35;;;11.50;99.90;;;;;;4961977;28;20046;-82
2023/04/25 02:29:02;;;;;;;18.45;11.70;;;11.50;99.90;;;;;;4988475;28;20043;-81
2023/04/25 02:31:30;;;;;;;18.75;12.05;;;11.50;99.90;;;;;;4969562;28;20146;-82
2023/04/25 02:33:59;;;;;;;17.67;11.85;;;11.50;99.90;;;;;;4969875;28;20057;-82
2023/04/25 02:36:30;;;;;;;21.30;12.43;;;11.50;99.90;;;;;;4966202;28;20062;-82
2023/04/25 02:38:57;;;;;;;22.48;12.27;;;11.50;99.90;;;;;;4986547;28;20050;-81
2023/04/25 02:41:26;;;;;;;25.98;11.48;;;11.50;99.90;;;;;;4964893;28;20050;-82
2023/04/25 02:43:56;;;;;;;14.23;11.32;;;11.50;99.90;;;;;;4969056;28;20078;-82
2023/04/25 02:46:26;;;;;;;24.00;12.48;;;11.50;99.90;;;;;;4971108;28;20561;-82
2023/04/25 02:48:54;;;;;;;20.95;11.60;;;11.50;99.90;;;;;;4967058;28;20070;-82
2023/04/25 02:51:21;;;;;;;20.95;10.60;;;11.50;99.90;;;;;;4969372;28;20085;-82
2023/04/25 02:53:49;;;;;;;23.20;9.50;;;11.50;99.90;;;;;;4950791;28;20146;-83
2023/04/25 02:56:17;;;;;;;23.33;10.40;;;11.50;99.90;;;;;;4951380;29;20047;-82
2023/04/25 02:58:45;;;;;;;13.00;9.68;;;11.60;99.90;;;;;;4963897;28;20097;-78
2023/04/25 03:01:13;;;;;;;20.98;9.30;;;11.60;99.90;;;;;;4966897;28;20047;-78
2023/04/25 03:03:40;;;;;;;14.73;9.38;;;11.60;99.90;;;;;;4969833;28;20081;-78
2023/04/25 03:06:08;;;;;;;17.85;9.60;;;11.70;99.90;;;;;;4953784;28;20055;-78
2023/04/25 03:08:36;;;;;;;17.52;9.95;;;11.70;99.90;;;;;;4951317;28;20081;-78
2023/04/25 03:11:03;;;;;;;16.23;9.02;;;11.70;99.90;;;;;;4966842;28;20062;-78
2023/04/25 03:13:31;;;;;;;19.40;8.68;;;11.70;99.90;;;;;;4969518;28;20063;-79
2023/04/25 03:16:02;;;;;;;17.35;9.00;;;11.80;99.90;;;;;;4969449;28;20055;-79
2023/04/25 03:18:31;;;;;;;15.73;8.00;;;11.80;99.90;;;;;;4951014;28;20094;-78
2023/04/25 03:20:58;;;;;;;13.27;7.72;;;11.80;99.90;;;;;;4964953;28;20047;-79
2023/04/25 03:23:26;;;;;;;11.00;7.07;;;11.90;99.90;;;;;;4949192;28;20051;-78
2023/04/25 03:25:54;;;;;;;12.82;8.02;;;11.90;99.90;;;;;;4964784;28;20075;-78
2023/04/25 03:28:21;;;;;;;12.30;7.15;;;11.90;99.90;;;;;;4968484;28;20478;-79
2023/04/25 03:30:49;;;;;;;14.85;7.53;;;11.90;99.90;;;;;;4948199;28;20066;-79
2023/04/25 03:33:18;;;;;;;9.85;7.13;;;12.00;99.90;;;;;;4951002;29;20043;-78
2023/04/25 03:35:45;;;;;;;15.65;7.07;;;12.10;99.90;;;;;;4962752;28;20086;-78
2023/04/25 03:38:15;;;;;;;11.93;6.68;;;12.10;99.90;;;;;;4964907;28;20050;-78
2023/04/25 03:40:43;;;;;;;18.02;6.05;;;12.20;99.90;;;;;;4963743;28;20052;-79
2023/04/25 03:43:33;;;;;;;14.15;6.85;;;12.20;99.90;;;;;;4956106;28;20053;-79
2023/04/25 03:46:06;;;;;;;13.15;6.43;;;12.30;99.90;;;;;;4954020;28;20053;-79
2023/04/25 03:48:35;;;;;;;14.30;6.68;;;12.40;99.90;;;;;;4966219;28;20047;-78
2023/04/25 03:51:02;;;;;;;17.27;6.80;;;12.40;99.90;;;;;;4954690;28;20054;-78
2023/04/25 03:53:32;;;;;;;14.85;7.55;;;12.50;99.90;;;;;;4968581;28;20578;-82
2023/04/25 03:56:29;;;;;;;16.38;8.40;;;12.60;99.90;;;;;;4966921;28;20047;-81
2023/04/25 03:59:03;;;;;;;15.63;6.72;;;12.70;99.90;;;;;;4981791;28;20058;-80
2023/04/25 04:01:32;;;;;;;15.07;5.90;;;12.80;99.90;;;;;;4960432;28;20047;-80
2023/04/25 04:04:01;;;;;;;15.48;6.60;;;12.80;99.90;;;;;;4970818;28;20050;-80
2023/04/25 04:06:30;;;;;;;23.20;7.18;;;12.90;99.90;;;;;;4966731;28;20137;-82
2023/04/25 04:09:08;;;;;;;20.45;6.95;;;13.00;99.90;;;;;;4970146;28;20046;-81
2023/04/25 04:11:39;;;;;;;17.20;6.85;;;13.10;99.90;;;;;;4965158;28;20455;-81
2023/04/25 04:14:07;;;;;;;14.85;6.13;;;13.10;99.90;;;;;;4968069;28;20059;-80
2023/04/25 04:16:35;;;;;;;19.13;6.28;;;13.10;99.90;;;;;;4967047;28;20190;-82
2023/04/25 04:19:05;;;;;;;15.32;6.65;;;13.20;99.90;;;;;;4971547;28;20062;-82
2023/04/25 04:21:33;;;;;;;13.68;6.63;;;13.30;99.90;;;;;;4959032;28;20097;-84
2023/04/25 04:24:05;;;;;;;16.73;6.75;;;13.30;99.90;;;;;;4949993;29;20150;-82
2023/04/25 04:26:44;;;;;;;18.17;5.80;;;13.40;99.90;;;;;;4970515;28;20117;-82
2023/04/25 04:29:34;;;;;;;15.85;6.22;;;13.50;99.90;;;;;;4983176;28;20842;-81
2023/04/25 04:32:27;;;;;;;22.80;5.85;;;13.60;99.90;;;;;;4962845;28;20054;-84
2023/04/25 04:35:03;;;;;;;15.65;6.78;;;13.60;99.90;;;;;;4974115;28;20054;-80
2023/04/25 04:37:36;;;;;;;15.30;6.20;;;13.70;99.90;;;;;;4983918;28;20047;-79
2023/04/25 04:40:07;;;;;;;16.73;6.53;;;13.80;99.90;;;;;;4954645;29;20146;-79
2023/04/25 04:42:47;;;;;;;20.60;7.00;;;13.80;99.90;;;;;;4956523;28;20149;-80
2023/04/25 04:45:49;;;;;;;15.50;6.47;;;13.90;99.90;;;;;;4939307;28;20338;-79
2023/04/25 04:48:35;;;;;;;15.70;5.85;;;13.90;99.90;;;;;;4969164;28;20050;-80
2023/04/25 04:51:25;;;;;;;10.38;6.07;;;14.00;99.90;;;;;;4940067;28;20431;-80
2023/04/25 04:53:58;;;;;;;22.07;6.43;;;14.00;99.90;;;;;;4970630;28;20047;-81
2023/04/25 04:56:50;;;;;;;19.75;6.07;;;14.00;99.90;;;;;;4928202;28;20381;-79
2023/04/25 04:59:43;;;;;;;16.77;6.53;;;14.10;99.90;;;;;;4972145;28;20066;-80
2023/04/25 05:02:46;;;;;;;18.95;5.85;;;14.30;99.90;;;;;;4975910;28;20054;-81
2023/04/25 05:05:54;;;;;;;13.57;5.25;;;14.40;99.90;;;;;;4918657;28;20123;-81
2023/04/25 05:08:32;;;;;;;13.45;5.47;;;14.50;99.90;;;;;;4965697;28;20431;-80
2023/04/25 05:11:25;;;;;;;16.10;6.03;;;14.60;99.90;;;;;;4969802;28;20526;-86
2023/04/25 05:14:25;;;;;;;24.45;6.55;;;14.60;99.90;;;;;;4940429;28;20059;-84
2023/04/25 05:17:08;;;;;;;13.35;5.55;;;14.80;99.80;;;;;;4970882;28;20047;-87
2023/04/25 05:19:52;;;;;;;16.05;6.20;;;14.80;99.30;;;;;;4969582;28;20527;-87
2023/04/25 05:22:46;;;;;;;18.02;5.32;;;14.90;99.00;;;;;;4969652;28;20591;-84
2023/04/25 05:25:21;;;;;;;19.38;4.97;;;15.00;98.10;;;;;;4951651;28;20073;-85
2023/04/25 05:28:07;;;;;;;16.75;5.70;;;15.00;97.40;;;;;;4987781;28;20466;-78
2023/04/25 05:30:58;;;;;;;18.15;5.53;;;15.20;97.40;;;;;;4959953;28;20055;-84
2023/04/25 05:33:43;;;;;;;17.98;5.22;;;15.30;96.30;;;;;;4965612;28;20053;-80
2023/04/25 05:36:11;;;;;;;21.38;6.57;;;15.40;96.20;;;;;;4983654;28;20054;-79
2023/04/25 05:38:40;;;;;;;22.48;5.97;;;15.50;95.30;;;;;;4972331;28;20051;-79
2023/04/25 05:41:51;;;;;;;12.23;4.70;;;15.60;94.60;;;;;;4969139;28;20046;-87
2023/04/25 05:44:45;;;;;;;14.50;4.85;;;15.70;94.00;;;;;;4974151;28;20546;-86
2023/04/25 05:47:38;;;;;;;12.30;5.60;;;15.90;93.30;;;;;;4984806;28;20058;-79
2023/04/25 05:50:11;;;;;;;11.52;5.35;;;16.10;92.10;;;;;;4951893;28;20047;-79
2023/04/25 05:52:51;;;;;;;10.00;4.15;;;16.20;92.00;;;;;;4948112;28;20113;-79
2023/04/25 05:55:37;;;;;;;9.50;4.78;;;16.40;91.00;;;;;;4956603;28;20054;-85
2023/04/25 05:58:28;;;;;;;16.17;4.65;;;16.50;90.50;;;;;;4973364;28;20145;-78
2023/04/25 06:00:56;;;;;;;8.55;4.72;;;17.00;89.00;;;;;;4969277;28;20062;-78
2023/04/25 06:03:24;;;;;;;14.77;6.40;;;17.30;87.10;;;;;;4962261;28;20053;-79
2023/04/25 06:05:53;;;;;;;10.65;4.57;;;17.40;85.40;;;;;;4962005;28;20518;-79
2023/04/25 06:08:21;;;;;;;18.17;4.68;;;17.60;83.80;;;;;;4967913;28;20529;-78
2023/04/25 06:10:49;;;;;;;7.82;4.45;;;17.80;82.90;;;;;;4972424;28;20098;-79
2023/04/25 06:13:20;;;;;;;11.38;5.10;;;17.80;81.10;;;;;;4963904;28;20051;-81
2023/04/25 06:15:50;;;;;;;14.00;7.72;;;17.80;81.00;;;;;;4963496;28;20105;-83
2023/04/25 06:18:18;;;;;;;13.50;4.72;;;17.80;81.60;;;;;;4966030;28;20082;-80
2023/04/25 06:20:45;;;;;;;12.82;6.20;;;17.90;80.60;;;;;;4953095;28;20125;-79
2023/04/25 06:23:13;;;;;;;15.48;4.97;;;18.00;80.30;;;;;;4949937;28;20154;-79
2023/04/25 06:25:49;;;;;;;11.82;4.28;;;18.00;79.20;;;;;;4977500;28;20062;-80
2023/04/25 06:28:17;;;;;;;17.85;5.38;;;18.00;79.00;;;;;;4968904;28;20073;-80
2023/04/25 06:30:46;;;;;;;15.38;4.93;;;18.00;78.80;;;;;;4971647;28;20047;-80
2023/04/25 06:33:19;;;;;;;13.75;5.15;;;18.10;78.70;;;;;;4955344;28;20215;-81
2023/04/25 06:35:48;;;;;;;9.73;4.85;;;18.40;77.50;;;;;;4965701;28;20045;-79
2023/04/25 06:38:20;;;;;;;12.00;4.60;;;18.60;77.10;;;;;;4951383;28;20503;-80
2023/04/25 06:40:51;;;;;;;13.23;5.40;;;18.70;76.40;;;;;;4985228;28;20388;-80
2023/04/25 06:43:20;;;;;;;16.25;5.28;;;18.90;76.30;;;;;;4989476;28;20082;-90
2023/04/25 06:46:05;;;;;;;14.35;5.35;;;19.10;74.80;;;;;;4951912;28;20058;-87
2023/04/25 06:48:41;;;;;;;13.75;4.68;;;19.40;74.90;;;;;;4953709;28;20054;-83
2023/04/25 06:51:08;;;;;;;18.55;5.07;;;20.20;74.20;;;;;;4983872;28;20049;-90
2023/04/25 06:53:37;;;;;;;13.00;5.32;;;21.10;70.50;;;;;;4983528;28;20177;-87
2023/04/25 06:56:08;;;;;;;15.05;5.05;;;22.00;66.90;;;;;;4969290;28;20057;-86
2023/04/25 06:58:56;;;;;;;16.17;5.20;;;23.00;62.80;;;;;;4968150;28;20050;-87
2023/04/25 07:01:43;;;;;;;9.02;4.32;;;23.80;59.10;;;;;;4968099;28;20078;-90
2023/04/25 07:04:34;;;;;;;16.90;4.20;;;24.40;57.00;;;;;;4965974;28;20111;-88
2023/04/25 07:07:03;;;;;;;7.55;3.80;;;25.10;55.20;;;;;;4951817;28;20057;-87
2023/04/25 07:09:53;;;;;;;14.13;4.70;;;25.40;53.40;;;;;;4966393;28;20042;-89
2023/04/25 07:12:22;;;;;;;12.75;4.15;;;;;;;;;;4949969;28;20145;-87
2023/04/25 07:14:52;;;;;;;9.93;3.97;;;26.40;49.80;;;;;;4966163;28;20141;-88
2023/04/25 07:17:20;;;;;;;11.55;3.90;;;26.70;49.30;;;;;;4986236;28;20042;-91
2023/04/25 07:19:53;;;;;;;13.75;4.13;;;26.70;49.10;;;;;;4980001;28;20078;-88
2023/04/25 07:22:21;;;;;;;12.15;3.80;;;26.80;48.40;;;;;;4971108;28;20598;-90
2023/04/25 07:24:50;;;;;;;13.05;4.18;;;26.90;48.60;;;;;;4973793;28;20047;-88
2023/04/25 07:27:21;;;;;;;15.13;4.28;;;27.30;48.00;;;;;;4972008;28;20057;-91
2023/04/25 07:30:13;;;;;;;7.63;5.10;;;27.60;47.60;;;;;;4969312;28;20057;-90
2023/04/25 07:32:41;;;;;;;10.02;6.38;;;28.40;46.20;;;;;;4969834;28;20098;-92
2023/04/25 07:35:10;;;;;;;18.65;5.63;;;28.60;45.90;;;;;;4986686;28;20039;-88
2023/04/25 07:37:38;;;;;;;17.35;5.70;;;29.00;44.60;;;;;;4971295;28;20142;-90
2023/04/25 07:40:16;;;;;;;13.00;4.93;;;29.30;44.50;;;;;;4968241;28;20053;-89
2023/04/25 07:42:50;;;;;;;11.32;5.10;;;29.60;42.70;;;;;;4972292;28;20050;-88
2023/04/25 07:45:23;;;;;;;11.57;3.38;;;29.80;41.80;;;;;;4970186;28;20561;-88
2023/04/25 07:47:51;;;;;;;12.48;4.32;;;29.70;41.30;;;;;;4941759;29;20078;-87
2023/04/25 07:50:20;;;;;;;10.80;3.80;;;29.50;41.30;;;;;;4967380;28;20059;-87
2023/04/25 07:52:48;;;;;;;7.05;3.15;;;29.70;40.80;;;;;;4956453;28;20481;-90
2023/04/25 07:55:25;;;;;;;8.60;3.47;;;29.80;40.10;;;;;;4975149;28;20532;-88
2023/04/25 07:58:04;;;;;;;11.80;3.33;;;29.50;40.30;;;;;;4968539;28;20047;-89
2023/04/25 08:00:36;;;;;;;10.05;3.33;;;29.70;40.30;;;;;;4971611;28;20570;-88
2023/04/25 08:03:22;;;;;;;7.43;3.50;;;29.90;40.10;;;;;;4971404;28;20125;-87
2023/04/25 08:05:52;;;;;;;7.43;3.08;;;30.30;40.00;;;;;;4988595;28;20140;-89
2023/04/25 08:08:20;;;;;;;7.18;2.83;;;30.60;38.50;;;;;;4970921;28;20063;-90
2023/04/25 08:10:48;;;;;;;7.38;3.00;;;30.50;38.30;;;;;;4975169;28;20098;-88
2023/04/25 08:13:17;;;;;;;8.90;2.78;;;30.50;38.30;;;;;;4959456;28;20055;-86
2023/04/25 08:15:46;;;;;;;6.15;2.67;;;30.50;38.10;;;;;;4956362;28;20043;-87
2023/04/25 08:18:14;;;;;;;4.47;2.50;;;30.30;37.90;;;;;;4971101;28;20046;-88
2023/04/25 08:20:43;;;;;;;11.05;2.53;;;30.30;38.30;;;;;;4991245;28;20050;-89
2023/04/25 08:23:14;;;;;;;8.98;2.60;;;30.30;38.10;;;;;;4975113;28;20043;-88
2023/04/25 08:25:52;;;;;;;7.28;2.40;;;30.20;38.60;;;;;;4974546;28;20047;-88
2023/04/25 08:28:24;;;;;;;3.83;2.70;;;30.00;37.80;;;;;;4970341;28;20055;-87
2023/04/25 08:30:52;;;;;;;7.65;3.00;;;30.30;38.00;;;;;;4974476;28;20751;-89
2023/04/25 08:33:21;;;;;;;9.30;2.75;;;30.80;37.40;;;;;;4956741;28;20054;-88
2023/04/25 08:36:03;;;;;;;12.70;3.00;;;31.10;35.80;;;;;;4971764;28;20049;-88
2023/04/25 08:38:34;;;;;;;3.47;2.25;;;31.00;36.00;;;;;;4972763;28;20054;-87
2023/04/25 08:41:03;;;;;;;14.05;2.42;;;31.00;35.70;;;;;;4972982;28;20550;-88
2023/04/25 08:43:33;;;;;;;5.85;1.95;;;31.30;34.90;;;;;;4952487;28;20062;-87
2023/04/25 08:46:03;;;;;;;5.38;2.22;;;31.50;33.80;;;;;;4974524;28;20550;-86
2023/04/25 08:48:54;;;;;;;5.22;2.13;;;31.70;33.20;;;;;;4973713;28;20149;-87
2023/04/25 08:51:24;;;;;;;5.45;2.17;;;31.60;33.30;;;;;;4956369;28;20043;-88
2023/04/25 08:53:54;;;;;;;5.95;2.20;;;;;;;;;;4986333;28;20109;-90
2023/04/25 08:56:23;;;;;;;8.20;2.58;;;32.60;32.90;;;;;;4973861;28;20474;-88
2023/04/25 08:58:51;;;;;;;8.77;2.22;;;32.80;33.30;;;;;;4970064;28;20050;-87
2023/04/25 09:01:19;;;;;;;4.30;2.70;;;32.60;33.80;;;;;;4968161;28;20065;-84
2023/04/25 09:03:52;;;;;;;6.20;2.70;;;32.40;34.70;;;;;;4954775;28;20042;-83
2023/04/25 09:06:21;;;;;;;4.40;2.03;;;32.60;33.60;;;;;;4970501;28;20134;-85
2023/04/25 09:08:53;;;;;;;3.55;2.30;;;32.80;34.30;;;;;;4970814;28;20442;-80
2023/04/25 09:11:21;;;;;;;3.90;2.33;;;33.30;33.20;;;;;;4968317;28;20423;-84
2023/04/25 09:14:13;;;;;;;4.15;2.40;;;33.70;32.40;;;;;;4970478;28;20054;-82
2023/04/25 09:17:07;;;;;;;16.85;2.33;;;33.70;32.20;;;;;;4962990;28;20524;-82
2023/04/25 09:19:45;;;;;;;9.65;2.22;;;33.80;32.10;;;;;;4950917;28;20475;-84
2023/04/25 09:22:34;;;;;;;10.30;2.50;;;33.60;33.00;;;;;;4943291;28;20062;-82
2023/04/25 09:25:10;;;;;;;6.03;2.28;;;32.50;33.10;;;;;;4986189;28;20054;-81
2023/04/25 09:27:53;;;;;;;7.80;2.70;;;30.30;33.80;;;;;;4983562;28;20039;-85
2023/04/25 09:30:32;;;;;;;3.42;2.28;;;28.90;35.60;;;;;;4949940;28;20042;-83
2023/04/25 09:33:09;;;;;;;2.25;2.05;;;29.50;34.80;;;;;;4967551;28;20728;-83
2023/04/25 09:35:39;;;;;;;4.35;2.33;;;28.60;35.30;;;;;;4953808;28;20454;-81
2023/04/25 09:38:21;;;;;;;9.93;7.32;;;27.50;36.70;;;;;;4953620;28;20485;-83
2023/04/25 09:40:57;;;;;;;11.07;2.50;;;26.50;38.00;;;;;;4971532;28;20408;-83
2023/04/25 09:43:37;;;;;;;5.50;2.30;;;25.50;38.50;;;;;;4970238;28;20097;-85
2023/04/25 09:46:13;;;;;;;7.15;2.63;;;25.00;39.40;;;;;;4969472;28;20086;-84
2023/04/25 09:48:53;;;;;;;4.60;2.30;;;24.60;40.00;;;;;;4968080;28;20167;-84
2023/04/25 09:51:32;;;;;;;7.20;2.42;;;24.50;40.30;;;;;;4986205;28;20047;-83
2023/04/25 09:54:01;;;;;;;3.67;2.40;;;25.10;41.20;;;;;;4970579;28;20050;-84
2023/04/25 09:56:38;;;;;;;7.28;2.25;;;26.50;39.40;;;;;;4966827;28;20070;-82
2023/04/25 09:59:10;;;;;;;10.13;2.30;;;27.50;38.20;;;;;;4952352;28;20542;-79
2023/04/25 10:01:47;;;;;;;10.52;2.33;;;28.70;37.70;;;;;;4971065;28;20050;-81
2023/04/25 10:04:27;;;;;;;4.90;2.10;;;29.60;37.10;;;;;;4953623;28;20511;-81
2023/04/25 10:07:13;;;;;;;7.07;2.28;;;30.60;35.70;;;;;;4970929;28;20050;-79
2023/04/25 10:09:50;;;;;;;5.13;2.45;;;31.40;34.50;;;;;;4970943;28;20511;-78
2023/04/25 10:12:20;;;;;;;4.20;2.55;;;32.20;35.00;;;;;;4969807;28;20054;-78
2023/04/25 10:14:52;;;;;;;3.95;2.00;;;32.60;34.10;;;;;;4968464;28;20061;-78
2023/04/25 10:17:23;;;;;;;5.88;2.00;;;32.60;33.80;;;;;;4987509;28;20046;-82
2023/04/25 10:19:53;;;;;;;5.82;2.22;;;32.70;32.40;;;;;;4969715;28;20047;-81
2023/04/25 10:22:34;;;;;;;5.32;2.28;;;32.40;32.80;;;;;;4968967;28;20195;-79
2023/04/25 10:25:03;;;;;;;7.70;2.63;;;32.40;33.20;;;;;;4970237;28;20050;-81
2023/04/25 10:27:35;;;;;;;4.97;2.47;;;32.80;32.50;;;;;;4968450;28;20069;-79
2023/04/25 10:30:05;;;;;;;2.90;2.43;;;33.00;32.40;;;;;;4971192;28;20055;-81
2023/04/25 10:32:34;;;;;;;6.97;2.17;;;32.20;32.30;;;;;;4969149;28;20490;-79
2023/04/25 10:35:17;;;;;;;5.65;2.33;;;31.40;33.10;;;;;;4961735;28;20681;-80
2023/04/25 10:38:04;;;;;;;5.13;2.40;;;29.80;33.90;;;;;;4970927;28;20053;-80
2023/04/25 10:40:32;;;;;;;8.13;2.20;;;28.90;35.20;;;;;;4963448;28;20050;-80
2023/04/25 10:43:39;;;;;;;2.58;2.10;;;29.90;34.80;;;;;;4972123;28;20054;-80
2023/04/25 10:46:26;;;;;;;9.13;2.58;;;31.30;33.90;;;;;;4954919;28;20063;-81
2023/04/25 10:48:56;;;;;;;7.55;2.30;;;31.50;33.60;;;;;;4971429;28;20050;-81
2023/04/25 10:51:27;;;;;;;3.78;2.65;;;30.20;33.90;;;;;;4972430;28;20102;-80
2023/04/25 10:54:00;;;;;;;11.50;2.85;;;29.00;34.60;;;;;;4971423;28;20082;-80
2023/04/25 10:56:30;;;;;;;6.78;2.90;;;28.10;35.90;;;;;;4986654;28;20121;-80
2023/04/25 10:59:15;;;;;;;8.82;2.50;;;27.80;36.50;;;;;;4971133;28;20422;-82
2023/04/25 11:01:45;;;;;;;2.78;2.33;;;28.40;35.80;;;;;;4970258;28;20133;-83
2023/04/25 11:04:23;;;;;;;5.47;3.03;;;28.50;35.50;;;;;;4970534;28;20046;-84
2023/04/25 11:07:10;;;;;;;5.05;2.00;;;27.70;35.30;;;;;;4968730;28;20051;-82
2023/04/25 11:09:47;;;;;;;6.30;2.17;;;27.30;36.20;;;;;;4969055;28;20050;-80
2023/04/25 11:12:19;;;;;;;6.28;2.78;;;28.50;35.60;;;;;;4986255;28;20055;-83
2023/04/25 11:14:50;;;;;;;5.88;2.50;;;29.80;34.80;;;;;;4970563;28;20663;-85
2023/04/25 11:17:18;;;;;;;5.80;2.20;;;31.20;33.70;;;;;;4971119;28;20101;-82
2023/04/25 11:19:50;;;;;;;5.57;2.20;;;32.20;33.20;;;;;;4971838;28;20053;-85
2023/04/25 11:22:18;;;;;;;7.25;2.70;;;32.80;31.60;;;;;;4954206;28;20066;-81
2023/04/25 11:24:50;;;;;;;3.42;2.65;;;31.60;32.00;;;;;;4970728;28;20050;-82
2023/04/25 11:27:21;;;;;;;3.90;2.60;;;30.30;33.10;;;;;;4971950;28;20467;-82
2023/04/25 11:29:51;;;;;;;5.30;2.08;;;30.50;33.70;;;;;;4971307;28;20089;-81
2023/04/25 11:32:35;;;;;;;3.35;2.33;;;30.40;33.50;;;;;;4984779;28;20470;-82
2023/04/25 11:35:03;;;;;;;7.68;3.63;;;29.40;34.00;;;;;;4970770;28;20050;-83
2023/04/25 11:37:31;;;;;;;6.82;2.40;;;29.20;34.80;;;;;;4967361;28;20047;-83
2023/04/25 11:39:59;;;;;;;5.32;2.45;;;30.50;33.90;;;;;;4951818;29;20098;-83
2023/04/25 11:42:28;;;;;;;5.07;2.40;;;30.30;33.10;;;;;;4960691;28;20050;-83
2023/04/25 11:44:58;;;;;;;4.60;2.20;;;29.10;34.10;;;;;;4972431;28;20095;-82
2023/04/25 11:47:35;;;;;;;7.40;2.30;;;29.10;34.80;;;;;;4967236;28;20055;-82
2023/04/25 11:50:10;;;;;;;4.78;2.30;;;30.90;33.60;;;;;;4972798;28;20055;-83
2023/04/25 11:52:39;;;;;;;3.58;2.08;;;30.90;32.90;;;;;;4971303;28;20149;-83
2023/04/25 11:55:10;;;;;;;2.97;2.03;;;29.40;33.70;;;;;;4970743;28;20071;-83
2023/04/25 11:57:40;;;;;;;3.42;2.47;;;28.20;35.40;;;;;;4963148;28;20066;-83
2023/04/25 12:00:13;;;;;;;3.92;2.20;;;27.20;35.40;;;;;;4972529;28;20062;-82
2023/04/25 12:02:45;;;;;;;8.52;2.33;;;26.40;36.40;;;;;;4963734;28;20101;-83
2023/04/25 12:05:16;;;;;;;2.72;2.13;;;26.20;37.20;;;;;;4968062;28;20038;-83
2023/04/25 12:07:44;;;;;;;2.55;2.13;;;27.10;36.80;;;;;;4949369;28;20047;-83
2023/04/25 12:10:18;;;;;;;2.70;2.33;;;27.20;36.60;;;;;;4970308;28;20086;-83
2023/04/25 12:12:47;;;;;;;2.47;2.25;;;26.90;36.10;;;;;;4964829;28;20447;-83
2023/04/25 12:15:20;;;;;;;2.88;2.20;;;26.30;36.60;;;;;;4967123;28;20050;-84
2023/04/25 12:18:02;;;;;;;10.32;2.97;;;26.00;37.80;;;;;;4968878;28;20062;-87
2023/04/25 12:20:32;;;;;;;5.43;2.53;;;25.90;37.60;;;;;;4978309;28;20054;-86
2023/04/25 12:23:00;;;;;;;6.43;2.70;;;25.50;37.90;;;;;;4968690;28;20070;-87
2023/04/25 12:25:39;;;;;;;6.60;2.58;;;25.10;38.20;;;;;;4969494;28;20050;-86
2023/04/25 12:28:14;;;;;;;5.40;3.28;;;24.70;38.40;;;;;;4959956;28;20054;-85
2023/04/25 12:31:01;;;;;;;10.73;2.60;;;24.70;39.00;;;;;;4969851;28;20047;-86
2023/04/25 12:33:36;;;;;;;5.95;2.40;;;25.10;39.10;;;;;;4968210;28;20514;-87
2023/04/25 12:36:09;;;;;;;6.57;2.97;;;25.60;38.10;;;;;;4970421;28;20058;-83
2023/04/25 12:38:39;;;;;;;6.57;3.17;;;25.40;38.50;;;;;;4973255;28;20149;-86
2023/04/25 12:41:08;;;;;;;6.75;3.10;;;25.20;38.90;;;;;;4971179;28;20102;-85
2023/04/25 12:43:35;;;;;;;10.55;2.58;;;24.80;39.90;;;;;;4972975;28;20046;-88
2023/04/25 12:46:05;;;;;;;7.55;2.33;;;24.40;39.00;;;;;;4964099;28;20059;-83
2023/04/25 12:48:33;;;;;;;4.38;2.78;;;24.00;39.50;;;;;;4972135;28;20080;-84
2023/04/25 12:51:03;;;;;;;3.35;2.50;;;23.70;40.30;;;;;;4985650;28;20051;-85
2023/04/25 12:53:31;;;;;;;4.50;2.80;;;23.60;40.10;;;;;;4976195;28;20117;-84
2023/04/25 12:55:58;;;;;;;3.58;3.10;;;23.40;40.30;;;;;;4973254;28;20054;-85
2023/04/25 12:58:26;;;;;;;6.95;2.63;;;23.30;40.70;;;;;;4972216;28;20055;-80
2023/04/25 13:00:54;;;;;;;6.80;2.70;;;23.30;41.00;;;;;;4967726;28;20093;-82
2023/04/25 13:03:22;;;;;;;5.03;2.72;;;23.20;40.50;;;;;;4971835;28;20054;-80
2023/04/25 13:05:52;;;;;;;4.95;2.60;;;23.10;41.80;;;;;;4973201;28;20109;-81
2023/04/25 13:08:20;;;;;;;8.23;2.97;;;23.20;40.60;;;;;;4969067;28;20074;-84
2023/04/25 13:10:49;;;;;;;6.82;3.40;;;23.30;41.00;;;;;;4973629;28;20138;-84